createdAt,value
2022-10-04T00:01:47.692Z,98423.88
2022-10-04T00:04:21.046Z,98428.13
2022-10-04T00:07:23.895Z,98424.75
2022-10-04T00:10:22.144Z,98419.56
2022-10-04T00:12:52.432Z,98428.38
2022-10-04T00:15:33.676Z,98423.56
2022-10-04T00:18:00.368Z,98427.16
2022-10-04T00:20:53.309Z,98419.78
2022-10-04T00:23:23.219Z,98423.41
2022-10-04T00:25:51.479Z,98425.19
2022-10-04T00:28:21.015Z,98431.91
2022-10-04T00:31:25.927Z,98430.38
2022-10-04T00:34:15.593Z,98433.63
2022-10-04T00:36:48.469Z,98432.06
2022-10-04T00:39:18.336Z,98427.59
2022-10-04T00:41:48.168Z,98426.56
2022-10-04T00:44:35.935Z,98415.09
2022-10-04T00:47:12.727Z,98431.91
2022-10-04T00:49:42.929Z,98430.75
2022-10-04T00:52:21.724Z,98438.72
2022-10-04T00:54:57.073Z,98433.22
2022-10-04T00:57:47.414Z,98435.78
2022-10-04T01:00:16.534Z,98436.53
2022-10-04T01:02:45.801Z,98447.75
2022-10-04T01:05:28.147Z,98434.59
2022-10-04T01:08:03.343Z,98436.97
2022-10-04T01:10:39.554Z,98432.47
2022-10-04T01:13:27.708Z,98438.47
2022-10-04T01:16:03.745Z,98434.94
2022-10-04T01:18:35.582Z,98431.06
2022-10-04T01:21:21.139Z,98435.75
2022-10-04T01:23:49.533Z,98435.03
2022-10-04T01:26:34.643Z,98436.34
2022-10-04T01:29:15.763Z,98434.56
2022-10-04T01:31:48.772Z,98441.16
2022-10-04T01:34:18.523Z,98447.03
2022-10-04T01:36:47.301Z,98454.63
2022-10-04T01:39:16.169Z,98451.81
2022-10-04T01:41:54.063Z,98448.31
2022-10-04T01:44:32.811Z,98448.75
2022-10-04T01:47:05.330Z,98459.94
2022-10-04T01:49:36.594Z,98457.22
2022-10-04T01:52:22.559Z,98455.16
2022-10-04T01:54:59.516Z,98452.44
2022-10-04T01:57:34.238Z,98457.22
2022-10-04T02:00:08.940Z,98461.78
2022-10-04T02:02:50.811Z,98467.31
2022-10-04T02:05:27.381Z,98461.13
2022-10-04T02:07:56.135Z,98473.22
2022-10-04T02:10:25.323Z,98494.22
2022-10-04T02:12:54.876Z,98496.84
2022-10-04T02:15:26.353Z,98495.81
2022-10-04T02:17:55.391Z,98504.47
2022-10-04T02:20:25.891Z,98499.22
2022-10-04T02:23:06.445Z,98513.47
2022-10-04T02:25:36.402Z,98508.59
2022-10-04T02:28:04.187Z,98513.88
2022-10-04T02:30:37.902Z,98522.97
2022-10-04T02:33:05.187Z,98519.44
2022-10-04T02:35:45.069Z,98525.81
2022-10-04T02:38:23.586Z,98534.03
2022-10-04T02:41:03.885Z,98536.69
2022-10-04T02:43:46.043Z,98531.34
2022-10-04T02:46:23.405Z,98527.22
2022-10-04T02:48:58.695Z,98532.63
2022-10-04T02:51:38.039Z,98534.34
2022-10-04T02:54:16.570Z,98545.72
2022-10-04T02:56:44.360Z,98542.50
2022-10-04T02:59:16.688Z,98536.75
2022-10-04T03:01:49.894Z,98544.66
2022-10-04T03:04:18.394Z,98547.38
2022-10-04T03:06:47.965Z,98536.91
2022-10-04T03:09:16.239Z,98547.53
2022-10-04T03:11:44.018Z,98554.81
2022-10-04T03:14:19.146Z,98552.78
2022-10-04T03:16:50.135Z,98561.06
2022-10-04T03:19:19.306Z,98550.63
2022-10-04T03:21:49.259Z,98569.28
2022-10-04T03:24:23.542Z,98566.41
2022-10-04T03:26:56.158Z,98568.41
2022-10-04T03:29:26.612Z,98569.44
2022-10-04T03:31:58.437Z,98564.78
2022-10-04T03:34:37.523Z,98574.63
2022-10-04T03:37:09.517Z,98571.19
2022-10-04T03:39:46.084Z,98572.91
2022-10-04T03:42:22.986Z,98575.69
2022-10-04T03:44:54.138Z,98577.34
2022-10-04T03:47:34.141Z,98580.97
2022-10-04T03:50:15.746Z,98579.31
2022-10-04T03:52:50.773Z,98586.31
2022-10-04T03:55:19.455Z,98588.88
2022-10-04T03:57:47.084Z,98587.06
2022-10-04T04:00:20.701Z,98592.41
2022-10-04T04:02:58.539Z,98588.63
2022-10-04T04:05:35.814Z,98593.75
2022-10-04T04:08:15.820Z,98593.69
2022-10-04T04:10:47.468Z,98597.94
2022-10-04T04:13:32.890Z,98602.13
2022-10-04T04:16:03.067Z,98596.38
2022-10-04T04:18:33.171Z,98601.28
2022-10-04T04:21:03.032Z,98603.84
2022-10-04T04:23:39.529Z,98605.38
2022-10-04T04:26:15.802Z,98606.25
2022-10-04T04:28:49.114Z,98607.03
2022-10-04T04:31:19.958Z,98615.75
2022-10-04T04:34:02.146Z,98622.59
2022-10-04T04:36:41.464Z,98625.16
2022-10-04T04:39:37.465Z,98630.19
2022-10-04T04:42:14.094Z,98631.44
2022-10-04T04:45:00.361Z,98630.44
2022-10-04T04:47:36.102Z,98626.47
2022-10-04T04:50:13.804Z,98633.03
2022-10-04T04:52:42.641Z,98635.31
2022-10-04T04:56:01.916Z,98643.13
2022-10-04T04:58:42.611Z,98640.19
2022-10-04T05:01:21.588Z,98650.41
2022-10-04T05:04:06.703Z,98653.66
2022-10-04T05:06:35.830Z,98655.06
2022-10-04T05:09:03.974Z,98664.66
2022-10-04T05:11:38.590Z,98667.50
2022-10-04T05:14:12.382Z,98669.00
2022-10-04T05:16:45.642Z,98675.44
2022-10-04T05:19:21.750Z,98670.44
2022-10-04T05:21:51.767Z,98673.78
2022-10-04T05:24:21.292Z,98670.72
2022-10-04T05:27:21.783Z,98690.50
2022-10-04T05:30:06.013Z,98687.44
2022-10-04T05:32:38.798Z,98677.22
2022-10-04T05:35:15.021Z,98682.78
2022-10-04T05:37:53.856Z,98700.63
2022-10-04T05:40:39.077Z,98698.88
2022-10-04T05:43:22.785Z,98709.25
2022-10-04T05:46:27.304Z,98709.34
2022-10-04T05:49:19.369Z,98711.03
2022-10-04T05:52:02.818Z,98712.31
2022-10-04T05:54:34.153Z,98708.56
2022-10-04T05:57:34.846Z,98716.56
2022-10-04T06:00:21.231Z,98713.09
2022-10-04T06:02:58.847Z,98713.66
2022-10-04T06:05:54.373Z,98713.63
2022-10-04T06:08:34.004Z,98715.78
2022-10-04T06:11:12.878Z,98719.78
2022-10-04T06:13:44.676Z,98728.16
2022-10-04T06:17:01.653Z,98735.13
2022-10-04T06:19:34.789Z,98734.75
2022-10-04T06:22:18.980Z,98735.19
2022-10-04T06:24:54.439Z,98736.47
2022-10-04T06:27:41.115Z,98741.91
2022-10-04T06:30:15.257Z,98746.59
2022-10-04T06:33:21.002Z,98747.94
2022-10-04T06:35:57.489Z,98762.50
2022-10-04T06:38:44.587Z,98752.78
2022-10-04T06:41:25.827Z,98759.91
2022-10-04T06:44:13.482Z,98767.22
2022-10-04T06:47:18.922Z,98779.38
2022-10-04T06:50:06.838Z,98783.22
2022-10-04T06:52:54.254Z,98787.88
2022-10-04T06:55:53.321Z,98781.84
2022-10-04T06:58:34.107Z,98792.31
2022-10-04T07:01:10.396Z,98803.63
2022-10-04T07:03:51.754Z,98804.81
2022-10-04T07:06:30.040Z,98805.75
2022-10-04T07:09:02.522Z,98817.44
2022-10-04T07:11:37.343Z,98821.25
2022-10-04T07:14:03.979Z,98827.59
2022-10-04T07:16:37.379Z,98826.00
2022-10-04T07:19:26.476Z,98830.13
2022-10-04T07:21:59.129Z,98829.63
2022-10-04T07:24:49.224Z,98841.38
2022-10-04T07:27:46.961Z,98840.84
2022-10-04T07:30:20.343Z,98850.06
2022-10-04T07:32:51.785Z,98855.75
2022-10-04T07:35:34.764Z,98848.94
2022-10-04T07:38:13.421Z,98858.66
2022-10-04T07:41:23.286Z,98858.53
2022-10-04T07:43:57.856Z,98867.75
2022-10-04T07:46:43.028Z,98872.47
2022-10-04T07:49:18.467Z,98879.06
2022-10-04T07:52:18.580Z,98882.81
2022-10-04T07:55:02.213Z,98892.72
2022-10-04T07:58:07.217Z,98892.91
2022-10-04T08:00:51.100Z,98894.09
2022-10-04T08:03:45.704Z,98891.19
2022-10-04T08:06:19.665Z,98892.66
2022-10-04T08:09:01.431Z,98896.06
2022-10-04T08:11:43.451Z,98903.47
2022-10-04T08:14:10.231Z,98891.78
2022-10-04T08:17:08.985Z,98888.81
2022-10-04T08:19:59.768Z,98891.28
2022-10-04T08:23:00.603Z,98900.31
2022-10-04T08:25:55.246Z,98908.06
2022-10-04T08:28:40.615Z,98907.41
2022-10-04T08:31:23.052Z,98901.50
2022-10-04T08:34:17.991Z,98911.34
2022-10-04T08:36:54.840Z,98913.63
2022-10-04T08:39:52.746Z,98915.41
2022-10-04T08:43:16.708Z,98919.09
2022-10-04T08:45:43.863Z,98927.13
2022-10-04T08:48:24.683Z,98926.66
2022-10-04T08:51:14.853Z,98942.03
2022-10-04T08:53:50.665Z,98935.91
2022-10-04T08:56:50.536Z,98941.88
2022-10-04T08:59:39.016Z,98947.06
2022-10-04T09:02:39.815Z,98950.66
2022-10-04T09:05:34.084Z,98952.59
2022-10-04T09:08:22.057Z,98958.59
2022-10-04T09:11:05.686Z,98959.47
2022-10-04T09:13:48.457Z,98961.69
2022-10-04T09:16:18.357Z,98962.56
2022-10-04T09:19:15.950Z,98971.00
2022-10-04T09:21:46.970Z,98969.00
2022-10-04T09:24:34.663Z,98968.06
2022-10-04T09:27:54.652Z,98971.28
2022-10-04T09:30:57.409Z,98974.47
2022-10-04T09:33:44.415Z,98971.81
2022-10-04T09:36:36.913Z,98983.88
2022-10-04T09:39:31.458Z,98990.44
2022-10-04T09:42:25.740Z,98995.41
2022-10-04T09:45:10.894Z,98993.97
2022-10-04T09:48:25.606Z,98998.22
2022-10-04T09:51:10.477Z,99005.91
2022-10-04T09:54:03.516Z,99010.69
2022-10-04T09:57:01.396Z,99015.31
2022-10-04T09:59:47.942Z,99018.91
2022-10-04T10:02:24.310Z,99019.41
2022-10-04T10:05:15.916Z,99026.66
2022-10-04T10:08:15.223Z,99011.34
2022-10-04T10:11:34.303Z,99018.97
2022-10-04T10:14:01.004Z,99023.56
2022-10-04T10:16:53.486Z,99025.06
2022-10-04T10:19:20.230Z,99019.25
2022-10-04T10:22:11.003Z,99022.34
2022-10-04T10:25:15.035Z,99023.44
2022-10-04T10:28:06.204Z,99024.59
2022-10-04T10:31:04.227Z,99026.59
2022-10-04T10:34:08.609Z,99029.22
2022-10-04T10:37:13.556Z,99022.44
2022-10-04T10:39:58.702Z,99027.75
2022-10-04T10:42:51.243Z,99027.38
2022-10-04T10:45:32.845Z,99025.56
2022-10-04T10:48:14.671Z,99039.22
2022-10-04T10:51:18.634Z,99027.75
2022-10-04T10:54:13.627Z,99024.94
2022-10-04T10:57:04.926Z,99030.97
2022-10-04T10:59:53.166Z,99036.84
2022-10-04T11:02:21.797Z,99041.03
2022-10-04T11:05:22.862Z,99047.47
2022-10-04T11:07:55.800Z,99039.41
2022-10-04T11:10:43.254Z,99043.50
2022-10-04T11:13:48.765Z,99046.06
2022-10-04T11:16:27.683Z,99053.03
2022-10-04T11:19:23.555Z,99057.47
2022-10-04T11:22:06.925Z,99049.19
2022-10-04T11:24:53.660Z,99059.88
2022-10-04T11:27:47.929Z,99055.16
2022-10-04T11:30:27.311Z,99055.97
2022-10-04T11:33:28.704Z,99051.19
2022-10-04T11:36:23.336Z,99061.00
2022-10-04T11:39:17.533Z,99063.53
2022-10-04T11:42:01.295Z,99064.09
2022-10-04T11:44:46.455Z,99063.88
2022-10-04T11:47:26.496Z,99062.09
2022-10-04T11:50:39.503Z,99065.84
2022-10-04T11:53:40.626Z,99061.59
2022-10-04T11:56:29.838Z,99066.56
2022-10-04T11:59:21.261Z,99062.56
2022-10-04T12:02:07.129Z,99068.09
2022-10-04T12:04:42.961Z,99062.78
2022-10-04T12:07:34.548Z,99062.59
2022-10-04T12:10:10.485Z,99063.00
2022-10-04T12:12:55.318Z,99080.09
2022-10-04T12:16:13.032Z,99081.59
2022-10-04T12:19:03.579Z,99083.59
2022-10-04T12:21:30.300Z,99096.88
2022-10-04T12:24:21.340Z,99114.09
2022-10-04T12:27:10.979Z,99108.38
2022-10-04T12:30:11.525Z,99120.28
2022-10-04T12:33:10.267Z,99127.59
2022-10-04T12:35:57.484Z,99121.03
2022-10-04T12:38:46.600Z,99131.81
2022-10-04T12:41:22.483Z,99138.59
2022-10-04T12:43:52.492Z,99140.47
2022-10-04T12:46:37.897Z,99138.59
2022-10-04T12:49:23.342Z,99150.47
2022-10-04T12:52:23.652Z,99150.53
2022-10-04T12:55:36.109Z,99150.78
2022-10-04T12:58:22.011Z,99160.72
2022-10-04T13:00:56.757Z,99162.69
2022-10-04T13:03:35.793Z,99159.81
2022-10-04T13:06:20.866Z,99165.97
2022-10-04T13:08:52.011Z,99174.28
2022-10-04T13:11:45.281Z,99173.06
2022-10-04T13:14:14.436Z,99183.06
2022-10-04T13:17:34.700Z,99190.53
2022-10-04T13:20:05.080Z,99178.72
2022-10-04T13:22:56.335Z,99193.25
2022-10-04T13:25:31.869Z,99193.25
2022-10-04T13:28:00.246Z,99189.75
2022-10-04T13:30:44.263Z,99196.84
2022-10-04T13:33:25.399Z,99205.53
2022-10-04T13:36:32.981Z,99204.84
2022-10-04T13:39:37.566Z,99202.75
2022-10-04T13:42:39.054Z,99206.41
2022-10-04T13:45:36.808Z,99210.69
2022-10-04T13:48:13.767Z,99215.97
2022-10-04T13:51:27.529Z,99224.34
2022-10-04T13:54:31.557Z,99220.56
2022-10-04T13:56:58.573Z,99218.53
2022-10-04T13:59:34.604Z,99235.03
2022-10-04T14:02:23.975Z,99233.09
2022-10-04T14:05:10.984Z,99231.47
2022-10-04T14:07:56.677Z,99231.00
2022-10-04T14:10:52.783Z,99241.34
2022-10-04T14:13:40.840Z,99232.94
2022-10-04T14:16:20.562Z,99248.78
2022-10-04T14:18:54.021Z,99259.38
2022-10-04T14:21:32.771Z,99246.97
2022-10-04T14:24:15.171Z,99258.31
2022-10-04T14:26:54.228Z,99251.44
2022-10-04T14:29:40.240Z,99251.16
2022-10-04T14:32:34.324Z,99258.31
2022-10-04T14:35:26.155Z,99253.63
2022-10-04T14:38:11.017Z,99260.66
2022-10-04T14:40:52.714Z,99269.34
2022-10-04T14:43:22.386Z,99267.47
2022-10-04T14:46:23.393Z,99273.41
2022-10-04T14:48:59.147Z,99275.28
2022-10-04T14:51:53.984Z,99278.69
2022-10-04T14:54:26.912Z,99281.50
2022-10-04T14:57:13.889Z,99289.53
2022-10-04T15:00:06.760Z,99294.00
2022-10-04T15:02:33.651Z,99295.34
2022-10-04T15:05:31.936Z,99302.31
2022-10-04T15:08:26.662Z,99301.00
2022-10-04T15:11:01.595Z,99303.94
2022-10-04T15:13:55.935Z,99303.59
2022-10-04T15:16:46.148Z,99310.06
2022-10-04T15:19:22.040Z,99312.16
2022-10-04T15:22:00.208Z,99319.59
2022-10-04T15:24:44.524Z,99320.69
2022-10-04T15:27:29.372Z,99328.00
2022-10-04T15:30:00.679Z,99337.19
2022-10-04T15:32:36.536Z,99343.25
2022-10-04T15:35:46.405Z,99335.91
2022-10-04T15:38:29.293Z,99340.59
2022-10-04T15:41:03.610Z,99349.06
2022-10-04T15:43:34.507Z,99345.75
2022-10-04T15:46:59.205Z,99352.69
2022-10-04T15:49:52.705Z,99366.81
2022-10-04T15:52:40.892Z,99360.88
2022-10-04T15:55:48.072Z,99367.03
2022-10-04T15:58:37.755Z,99373.31
2022-10-04T16:01:12.918Z,99379.19
2022-10-04T16:03:46.338Z,99382.81
2022-10-04T16:06:41.880Z,99381.03
2022-10-04T16:09:40.889Z,99387.19
2022-10-04T16:12:22.923Z,99385.03
2022-10-04T16:14:56.432Z,99398.31
2022-10-04T16:18:07.965Z,99407.84
2022-10-04T16:20:50.570Z,99404.03
2022-10-04T16:23:28.172Z,99415.78
2022-10-04T16:26:23.867Z,99412.09
2022-10-04T16:28:59.815Z,99421.44
2022-10-04T16:31:42.763Z,99428.63
2022-10-04T16:34:15.517Z,99421.91
2022-10-04T16:36:56.840Z,99425.31
2022-10-04T16:39:59.726Z,99422.53
2022-10-04T16:42:44.825Z,99421.06
2022-10-04T16:45:15.401Z,99428.78
2022-10-04T16:47:48.208Z,99434.00
2022-10-04T16:50:34.886Z,99427.97
2022-10-04T16:53:21.757Z,99421.97
2022-10-04T16:55:56.148Z,99423.34
2022-10-04T16:58:28.786Z,99425.06
2022-10-04T17:01:22.740Z,99424.06
2022-10-04T17:04:28.535Z,99438.19
2022-10-04T17:07:13.300Z,99438.00
2022-10-04T17:09:56.453Z,99440.50
2022-10-04T17:12:35.393Z,99444.94
2022-10-04T17:15:17.206Z,99458.16
2022-10-04T17:17:49.391Z,99459.84
2022-10-04T17:20:38.121Z,99468.53
2022-10-04T17:23:22.288Z,99463.31
2022-10-04T17:26:26.106Z,99461.59
2022-10-04T17:29:16.433Z,99467.34
2022-10-04T17:31:50.170Z,99471.66
2022-10-04T17:34:41.739Z,99470.88
2022-10-04T17:37:48.162Z,99477.78
2022-10-04T17:40:17.816Z,99473.72
2022-10-04T17:42:52.415Z,99482.22
2022-10-04T17:45:48.036Z,99481.50
2022-10-04T17:48:36.524Z,99483.97
2022-10-04T17:51:41.783Z,99490.34
2022-10-04T17:54:37.878Z,99489.56
2022-10-04T17:57:04.904Z,99494.91
2022-10-04T17:59:42.601Z,99488.75
2022-10-04T18:02:36.722Z,99491.53
2022-10-04T18:05:19.925Z,99500.94
2022-10-04T18:07:56.768Z,99502.66
2022-10-04T18:10:34.608Z,99498.75
2022-10-04T18:13:09.110Z,99507.47
2022-10-04T18:15:53.275Z,99503.75
2022-10-04T18:18:30.979Z,99508.34
2022-10-04T18:21:21.779Z,99506.66
2022-10-04T18:23:59.212Z,99514.00
2022-10-04T18:26:31.837Z,99509.56
2022-10-04T18:29:01.722Z,99512.16
2022-10-04T18:31:38.857Z,99513.03
2022-10-04T18:34:28.408Z,99511.25
2022-10-04T18:37:22.331Z,99518.03
2022-10-04T18:39:55.460Z,99523.19
2022-10-04T18:42:29.589Z,99530.06
2022-10-04T18:45:01.418Z,99519.34
2022-10-04T18:47:51.155Z,99521.81
2022-10-04T18:50:19.392Z,99527.03
2022-10-04T18:53:13.664Z,99534.75
2022-10-04T18:55:46.626Z,99539.16
2022-10-04T18:59:04.406Z,99536.31
2022-10-04T19:02:06.709Z,99543.28
2022-10-04T19:05:15.721Z,99542.31
2022-10-04T19:07:46.396Z,99540.38
2022-10-04T19:10:34.267Z,99551.78
2022-10-04T19:13:26.399Z,99551.66
2022-10-04T19:16:41.706Z,99552.50
2022-10-04T19:19:27.362Z,99556.09
2022-10-04T19:22:11.036Z,99561.44
2022-10-04T19:24:52.651Z,99559.66
2022-10-04T19:27:25.321Z,99568.56
2022-10-04T19:30:12.861Z,99561.38
2022-10-04T19:33:07.149Z,99571.97
2022-10-04T19:36:00.935Z,99567.47
2022-10-04T19:38:37.146Z,99569.09
2022-10-04T19:41:08.747Z,99574.25
2022-10-04T19:43:53.255Z,99569.91
2022-10-04T19:46:42.299Z,99573.19
2022-10-04T19:49:42.537Z,99583.63
2022-10-04T19:52:44.728Z,99587.00
2022-10-04T19:55:22.255Z,99588.78
2022-10-04T19:57:55.873Z,99587.72
2022-10-04T20:00:22.765Z,99593.94
2022-10-04T20:02:50.039Z,99597.38
2022-10-04T20:05:25.453Z,99594.66
2022-10-04T20:08:05.084Z,99591.16
2022-10-04T20:10:35.722Z,99597.19
2022-10-04T20:13:13.371Z,99596.97
2022-10-04T20:15:40.233Z,99601.44
2022-10-04T20:18:32.935Z,99604.78
2022-10-04T20:21:00.252Z,99611.75
2022-10-04T20:23:36.979Z,99606.41
2022-10-04T20:26:08.739Z,99616.72
2022-10-04T20:28:41.849Z,99622.84
2022-10-04T20:31:31.363Z,99620.91
2022-10-04T20:34:44.219Z,99635.19
2022-10-04T20:37:11.129Z,99637.88
2022-10-04T20:39:41.026Z,99635.19
2022-10-04T20:42:27.321Z,99642.41
2022-10-04T20:45:20.740Z,99647.63
2022-10-04T20:47:49.918Z,99639.38
2022-10-04T20:50:26.701Z,99650.41
2022-10-04T20:52:58.886Z,99645.97
2022-10-04T20:55:27.476Z,99653.97
2022-10-04T20:57:59.697Z,99660.94
2022-10-04T21:00:28.205Z,99660.03
2022-10-04T21:03:16.194Z,99661.13
2022-10-04T21:05:44.495Z,99664.81
2022-10-04T21:08:23.119Z,99659.25
2022-10-04T21:11:20.691Z,99660.34
2022-10-04T21:13:53.591Z,99672.56
2022-10-04T21:16:33.244Z,99678.72
2022-10-04T21:19:35.924Z,99683.84
2022-10-04T21:22:04.960Z,99676.94
2022-10-04T21:24:38.511Z,99684.75
2022-10-04T21:27:09.037Z,99674.03
2022-10-04T21:29:36.310Z,99674.84
2022-10-04T21:32:03.989Z,99671.28
2022-10-04T21:34:51.886Z,99686.06
2022-10-04T21:37:18.027Z,99692.16
2022-10-04T21:39:44.899Z,99692.00
2022-10-04T21:42:12.251Z,99693.69
2022-10-04T21:44:39.031Z,99690.13
2022-10-04T21:47:05.817Z,99691.88
2022-10-04T21:49:32.696Z,99693.75
2022-10-04T21:51:59.374Z,99687.59
2022-10-04T21:54:26.089Z,99692.09
2022-10-04T21:56:53.980Z,99681.50
2022-10-04T21:59:21.224Z,99678.72
2022-10-04T22:01:48.023Z,99684.06
2022-10-04T22:04:14.879Z,99687.66
2022-10-04T22:06:41.846Z,99693.94
2022-10-04T22:09:09.143Z,99699.94
2022-10-04T22:11:36.467Z,99697.25
2022-10-04T22:14:03.788Z,99688.00
2022-10-04T22:16:30.881Z,99696.59
2022-10-04T22:18:57.783Z,99698.59
2022-10-04T22:21:24.571Z,99699.31
2022-10-04T22:23:51.291Z,99693.22
2022-10-04T22:26:20.818Z,99701.25
2022-10-04T22:28:55.822Z,99710.09
2022-10-04T22:31:29.224Z,99706.69
2022-10-04T22:33:56.661Z,99705.75
2022-10-04T22:36:37.953Z,99711.06
2022-10-04T22:39:14.829Z,99707.47
2022-10-04T22:41:47.387Z,99718.25
2022-10-04T22:44:20.491Z,99722.84
2022-10-04T22:46:59.986Z,99721.84
2022-10-04T22:49:30.531Z,99722.91
2022-10-04T22:51:59.515Z,99724.69
2022-10-04T22:54:31.817Z,99732.63
2022-10-04T22:56:59.705Z,99737.22
2022-10-04T22:59:35.897Z,99742.38
2022-10-04T23:02:09.879Z,99746.59
2022-10-04T23:04:36.784Z,99746.59
2022-10-04T23:07:03.526Z,99744.00
2022-10-04T23:09:30.253Z,99747.47
2022-10-04T23:11:56.948Z,99759.56
2022-10-04T23:14:23.728Z,99753.25
2022-10-04T23:16:50.497Z,99762.63
2022-10-04T23:19:21.520Z,99757.13
2022-10-04T23:21:49.964Z,99758.81
2022-10-04T23:24:22.073Z,99762.97
2022-10-04T23:26:56.501Z,99773.63
2022-10-04T23:29:34.891Z,99761.72
2022-10-04T23:32:09.934Z,99777.06
2022-10-04T23:34:39.304Z,99774.84
2022-10-04T23:37:20.636Z,99786.03
2022-10-04T23:39:47.762Z,99785.06
2022-10-04T23:42:20.390Z,99784.19
2022-10-04T23:44:49.768Z,99782.13
2022-10-04T23:47:19.041Z,99785.00
2022-10-04T23:49:51.646Z,99789.16
2022-10-04T23:52:26.287Z,99799.56
2022-10-04T23:54:54.424Z,99796.59
2022-10-04T23:57:24.791Z,99801.81
2022-10-04T23:59:51.996Z,99796.13
